createdAt,value
2017-08-31T00:02:09.391Z,19.70
2017-08-31T00:04:36.914Z,19.70
2017-08-31T00:07:04.461Z,19.70
2017-08-31T00:09:32.044Z,19.70
2017-08-31T00:12:00.406Z,19.70
2017-08-31T00:14:28.049Z,19.70
2017-08-31T00:16:55.693Z,19.70
2017-08-31T00:19:23.262Z,19.70
2017-08-31T00:21:51.034Z,19.60
2017-08-31T00:24:18.573Z,19.50
2017-08-31T00:26:46.102Z,19.50
2017-08-31T00:29:13.629Z,19.50
2017-08-31T00:31:41.163Z,19.40
2017-08-31T00:34:08.718Z,19.40
2017-08-31T00:36:36.244Z,19.40
2017-08-31T00:39:03.793Z,19.30
2017-08-31T00:41:31.343Z,19.30
2017-08-31T00:43:58.910Z,19.30
2017-08-31T00:46:26.437Z,19.30
2017-08-31T00:48:54.061Z,19.30
2017-08-31T00:51:21.606Z,19.40
2017-08-31T00:53:49.224Z,19.40
2017-08-31T00:56:16.751Z,19.40
2017-08-31T00:58:44.331Z,19.30
2017-08-31T01:01:11.901Z,19.30
2017-08-31T01:03:39.457Z,19.30
2017-08-31T01:06:06.989Z,19.30
2017-08-31T01:08:34.542Z,19.30
2017-08-31T01:11:02.076Z,19.30
2017-08-31T01:13:29.622Z,19.30
2017-08-31T01:15:57.181Z,19.30
2017-08-31T01:18:24.729Z,19.40
2017-08-31T01:20:52.292Z,19.40
2017-08-31T01:23:19.829Z,19.40
2017-08-31T01:25:47.422Z,19.40
2017-08-31T01:28:14.961Z,19.40
2017-08-31T01:30:42.546Z,19.50
2017-08-31T01:33:10.074Z,19.40
2017-08-31T01:35:37.616Z,19.40
2017-08-31T01:38:05.179Z,19.40
2017-08-31T01:40:32.745Z,19.40
2017-08-31T01:43:00.317Z,19.30
2017-08-31T01:45:27.919Z,19.30
2017-08-31T01:47:55.455Z,19.20
2017-08-31T01:50:23.046Z,19.20
2017-08-31T01:52:50.624Z,19.20
2017-08-31T01:55:18.175Z,19.20
2017-08-31T01:57:45.725Z,19.20
2017-08-31T02:00:13.265Z,19.10
2017-08-31T02:02:40.821Z,19.20
2017-08-31T02:05:08.454Z,19.20
2017-08-31T02:07:36.026Z,19.20
2017-08-31T02:10:03.597Z,19.10
2017-08-31T02:12:31.185Z,19.20
2017-08-31T02:14:58.759Z,19.20
2017-08-31T02:17:26.370Z,19.20
2017-08-31T02:19:53.951Z,19.20
2017-08-31T02:22:21.550Z,19.20
2017-08-31T02:24:51.055Z,19.20
2017-08-31T02:27:18.622Z,19.20
2017-08-31T02:29:46.165Z,19.20
2017-08-31T02:32:13.752Z,19.20
2017-08-31T02:34:41.275Z,19.10
2017-08-31T02:37:08.866Z,19.10
2017-08-31T02:39:36.407Z,19.00
2017-08-31T02:42:03.945Z,19.10
2017-08-31T02:44:31.585Z,19.10
2017-08-31T02:46:59.158Z,19.10
2017-08-31T02:49:26.720Z,19.10
2017-08-31T02:51:54.260Z,19.10
2017-08-31T02:54:21.813Z,19.10
2017-08-31T02:56:49.348Z,19.10
2017-08-31T02:59:17.015Z,19.20
2017-08-31T03:01:44.550Z,19.10
2017-08-31T03:04:12.112Z,19.20
2017-08-31T03:06:39.671Z,19.20
2017-08-31T03:09:07.254Z,19.10
2017-08-31T03:11:34.800Z,19.20
2017-08-31T03:14:02.358Z,19.20
2017-08-31T03:16:29.906Z,19.20
2017-08-31T03:18:57.462Z,19.20
2017-08-31T03:21:24.982Z,19.20
2017-08-31T03:23:52.545Z,19.20
2017-08-31T03:26:20.050Z,19.20
2017-08-31T03:28:47.639Z,19.20
2017-08-31T03:31:15.173Z,19.20
2017-08-31T03:33:42.725Z,19.10
2017-08-31T03:36:10.257Z,19.10
2017-08-31T03:38:37.805Z,19.10
2017-08-31T03:41:05.372Z,19.00
2017-08-31T03:43:32.906Z,18.90
2017-08-31T03:46:00.477Z,18.90
2017-08-31T03:48:28.049Z,18.90
2017-08-31T03:50:55.657Z,18.90
2017-08-31T03:53:23.198Z,18.90
2017-08-31T03:55:50.744Z,18.90
2017-08-31T03:58:18.330Z,18.90
2017-08-31T04:00:45.907Z,18.90
2017-08-31T04:03:13.480Z,18.90
2017-08-31T04:05:41.099Z,18.90
2017-08-31T04:08:08.659Z,18.90
2017-08-31T04:10:36.235Z,19.00
2017-08-31T04:13:03.810Z,19.00
2017-08-31T04:15:31.395Z,19.10
2017-08-31T04:17:59.005Z,19.00
2017-08-31T04:20:26.592Z,19.00
2017-08-31T04:22:54.173Z,19.00
2017-08-31T04:25:21.784Z,19.00
2017-08-31T04:27:49.299Z,19.00
2017-08-31T04:30:16.902Z,19.00
2017-08-31T04:32:44.452Z,19.00
2017-08-31T04:35:11.973Z,19.00
2017-08-31T04:37:39.590Z,19.00
2017-08-31T04:40:07.125Z,19.00
2017-08-31T04:42:34.702Z,19.10
2017-08-31T04:45:02.321Z,19.00
2017-08-31T04:47:29.901Z,19.00
2017-08-31T04:49:57.494Z,19.10
2017-08-31T04:52:25.119Z,19.00
2017-08-31T04:54:52.674Z,19.00
2017-08-31T04:57:20.250Z,19.10
2017-08-31T04:59:47.815Z,19.10
2017-08-31T05:02:15.409Z,19.10
2017-08-31T05:04:42.983Z,19.10
2017-08-31T05:07:10.541Z,19.10
2017-08-31T05:09:38.117Z,19.10
2017-08-31T05:12:05.687Z,19.20
2017-08-31T05:14:33.295Z,19.20
2017-08-31T05:17:00.969Z,19.20
2017-08-31T05:19:29.716Z,19.10
2017-08-31T05:21:57.349Z,19.20
2017-08-31T05:24:24.916Z,19.20
2017-08-31T05:26:52.506Z,19.20
2017-08-31T05:29:20.119Z,19.10
2017-08-31T05:31:48.051Z,19.10
2017-08-31T05:34:15.646Z,19.10
2017-08-31T05:36:43.208Z,19.10
2017-08-31T05:39:11.702Z,19.00
2017-08-31T05:41:39.273Z,19.00
2017-08-31T05:44:06.821Z,19.00
2017-08-31T05:46:34.343Z,19.00
2017-08-31T05:49:01.929Z,19.00
2017-08-31T05:51:29.469Z,18.90
2017-08-31T05:53:57.049Z,18.60
2017-08-31T05:56:24.583Z,18.40
2017-08-31T05:58:52.144Z,18.20
2017-08-31T06:01:19.652Z,18.20
2017-08-31T06:03:47.204Z,18.20
2017-08-31T06:06:14.731Z,18.10
2017-08-31T06:08:42.394Z,18.10
2017-08-31T06:11:10.024Z,18.20
2017-08-31T06:13:37.617Z,18.10
2017-08-31T06:16:05.253Z,18.20
2017-08-31T06:18:32.802Z,18.20
2017-08-31T06:21:00.353Z,18.30
2017-08-31T06:23:27.887Z,18.40
2017-08-31T06:25:55.489Z,18.50
2017-08-31T06:28:23.053Z,18.60
2017-08-31T06:30:50.616Z,18.60
2017-08-31T06:33:18.154Z,18.70
2017-08-31T06:35:45.726Z,18.70
2017-08-31T06:38:14.408Z,18.70
2017-08-31T06:40:42.157Z,18.60
2017-08-31T06:43:09.767Z,18.80
2017-08-31T06:45:37.344Z,19.00
2017-08-31T06:48:04.940Z,19.30
2017-08-31T06:50:33.633Z,19.50
2017-08-31T06:53:01.205Z,19.80
2017-08-31T06:55:29.617Z,20.00
2017-08-31T06:57:57.320Z,20.10
2017-08-31T07:00:24.961Z,20.20
2017-08-31T07:02:52.589Z,20.20
2017-08-31T07:05:20.366Z,20.20
2017-08-31T07:07:48.712Z,20.30
2017-08-31T07:10:16.282Z,20.30
2017-08-31T07:12:43.805Z,20.30
2017-08-31T07:15:11.307Z,20.30
2017-08-31T07:17:38.988Z,20.20
2017-08-31T07:20:07.796Z,20.30
2017-08-31T07:22:35.516Z,20.30
2017-08-31T07:25:03.211Z,20.30
2017-08-31T07:27:34.468Z,20.40
2017-08-31T07:30:02.053Z,20.30
2017-08-31T07:32:36.282Z,20.20
2017-08-31T07:35:03.911Z,20.30
2017-08-31T07:37:37.433Z,20.30
2017-08-31T07:40:04.982Z,20.30
2017-08-31T07:42:32.571Z,20.20
2017-08-31T07:45:00.898Z,20.40
2017-08-31T07:47:28.468Z,20.30
2017-08-31T07:49:55.999Z,20.50
2017-08-31T07:52:23.541Z,20.60
2017-08-31T07:54:51.071Z,20.80
2017-08-31T07:57:18.685Z,20.90
2017-08-31T07:59:46.208Z,20.90
2017-08-31T08:02:13.749Z,20.80
2017-08-31T08:04:41.273Z,20.80
2017-08-31T08:07:08.916Z,20.70
2017-08-31T08:09:36.442Z,20.60
2017-08-31T08:12:03.977Z,20.50
2017-08-31T08:14:31.524Z,20.30
2017-08-31T08:16:59.037Z,20.20
2017-08-31T08:19:26.568Z,20.20
2017-08-31T08:21:54.133Z,20.20
2017-08-31T08:24:21.665Z,20.30
2017-08-31T08:26:49.212Z,20.30
2017-08-31T08:29:16.768Z,20.30
2017-08-31T08:31:44.304Z,20.20
2017-08-31T08:34:11.849Z,20.00
2017-08-31T08:36:39.607Z,19.80
2017-08-31T08:39:07.150Z,19.70
2017-08-31T08:41:34.675Z,19.60
2017-08-31T08:44:02.236Z,19.60
2017-08-31T08:46:29.747Z,19.70
2017-08-31T08:48:57.265Z,19.60
2017-08-31T08:51:24.780Z,19.50
2017-08-31T08:53:52.310Z,19.50
2017-08-31T08:56:19.813Z,19.60
2017-08-31T08:58:47.341Z,19.70
2017-08-31T09:01:14.838Z,19.90
2017-08-31T09:03:42.360Z,20.00
2017-08-31T09:06:09.877Z,20.20
2017-08-31T09:08:37.406Z,20.50
2017-08-31T09:11:05.103Z,20.80
2017-08-31T09:13:32.693Z,21.20
2017-08-31T09:16:00.299Z,21.40
2017-08-31T09:18:27.830Z,21.50
2017-08-31T09:20:55.378Z,21.40
2017-08-31T09:23:23.055Z,21.30
2017-08-31T09:25:50.626Z,21.00
2017-08-31T09:28:18.153Z,20.60
2017-08-31T09:30:45.721Z,19.80
2017-08-31T09:33:13.256Z,19.20
2017-08-31T09:35:43.405Z,18.80
2017-08-31T09:38:10.990Z,18.70
2017-08-31T09:40:38.583Z,18.50
2017-08-31T09:43:06.144Z,18.40
2017-08-31T09:45:33.737Z,18.40
2017-08-31T09:48:02.401Z,18.50
2017-08-31T09:50:30.084Z,18.60
2017-08-31T09:52:58.083Z,18.80
2017-08-31T09:58:11.379Z,19.10
2017-08-31T10:00:39.036Z,19.20
2017-08-31T10:03:06.601Z,19.10
2017-08-31T10:05:34.148Z,19.10
2017-08-31T10:08:01.798Z,18.80
2017-08-31T10:10:29.362Z,18.50
2017-08-31T10:12:57.002Z,18.40
2017-08-31T10:15:28.142Z,18.20
2017-08-31T10:17:56.076Z,18.00
2017-08-31T10:20:23.643Z,17.90
2017-08-31T10:22:51.230Z,17.80
2017-08-31T10:25:18.755Z,17.70
2017-08-31T10:27:46.293Z,17.60
2017-08-31T10:30:13.866Z,17.50
2017-08-31T10:32:41.400Z,17.50
2017-08-31T10:35:08.955Z,17.40
2017-08-31T10:37:36.583Z,17.50
2017-08-31T10:40:04.182Z,17.40
2017-08-31T10:42:31.715Z,17.50
2017-08-31T10:44:59.261Z,17.30
2017-08-31T10:47:26.847Z,17.40
2017-08-31T10:49:54.440Z,17.30
2017-08-31T10:52:22.013Z,17.30
2017-08-31T10:54:49.578Z,17.30
2017-08-31T10:57:17.122Z,17.30
2017-08-31T10:59:44.721Z,17.20
2017-08-31T11:02:12.315Z,17.30
2017-08-31T11:04:39.879Z,17.50
2017-08-31T11:07:07.418Z,17.70
2017-08-31T11:09:34.996Z,18.10
2017-08-31T11:12:02.589Z,18.60
2017-08-31T11:14:30.175Z,19.00
2017-08-31T11:16:57.708Z,19.20
2017-08-31T11:19:25.298Z,19.20
2017-08-31T11:21:52.890Z,19.10
2017-08-31T11:24:20.444Z,19.00
2017-08-31T11:26:48.007Z,19.00
2017-08-31T11:29:15.640Z,18.90
2017-08-31T11:31:43.197Z,19.00
2017-08-31T11:34:10.732Z,18.90
2017-08-31T11:36:38.359Z,19.00
2017-08-31T11:39:05.875Z,19.00
2017-08-31T11:41:33.476Z,19.20
2017-08-31T11:44:01.002Z,19.30
2017-08-31T11:46:28.609Z,19.40
2017-08-31T11:48:56.186Z,19.50
2017-08-31T11:51:23.796Z,19.70
2017-08-31T11:53:51.417Z,19.70
2017-08-31T11:56:19.097Z,19.60
2017-08-31T11:58:46.769Z,19.30
2017-08-31T12:01:14.446Z,19.10
2017-08-31T12:03:42.014Z,18.90
2017-08-31T12:06:15.156Z,19.00
2017-08-31T12:08:42.802Z,18.80
2017-08-31T12:11:10.494Z,18.80
2017-08-31T12:13:38.133Z,18.60
2017-08-31T12:16:05.709Z,18.60
2017-08-31T12:18:33.408Z,18.30
2017-08-31T12:21:00.974Z,18.00
2017-08-31T12:23:28.824Z,18.00
2017-08-31T12:25:58.422Z,17.90
2017-08-31T12:28:26.052Z,18.10
2017-08-31T12:30:54.012Z,18.10
2017-08-31T12:33:21.649Z,18.00
2017-08-31T12:35:49.212Z,17.90
2017-08-31T12:38:16.815Z,17.60
2017-08-31T12:40:44.650Z,17.50
2017-08-31T12:43:12.733Z,17.40
2017-08-31T12:45:40.333Z,17.40
2017-08-31T12:48:07.916Z,17.40
2017-08-31T12:50:35.438Z,17.30
2017-08-31T12:53:03.064Z,17.20
2017-08-31T12:55:30.660Z,17.20
2017-08-31T12:57:58.213Z,17.20
2017-08-31T13:00:25.803Z,17.10
2017-08-31T13:02:53.353Z,17.10
2017-08-31T13:05:20.928Z,17.00
2017-08-31T13:07:48.561Z,17.00
2017-08-31T13:10:16.143Z,17.00
2017-08-31T13:12:43.656Z,17.00
2017-08-31T13:15:11.252Z,17.00
2017-08-31T13:17:38.781Z,17.00
2017-08-31T13:20:07.304Z,17.00
2017-08-31T13:22:34.847Z,17.10
2017-08-31T13:25:02.785Z,17.10
2017-08-31T13:27:30.316Z,17.10
2017-08-31T13:29:57.887Z,17.10
2017-08-31T13:32:25.405Z,17.00
2017-08-31T13:34:52.993Z,16.90
2017-08-31T13:37:20.630Z,16.90
2017-08-31T13:39:48.185Z,16.80
2017-08-31T13:42:15.762Z,16.80
2017-08-31T13:44:43.301Z,16.70
2017-08-31T13:47:10.869Z,16.70
2017-08-31T13:49:38.548Z,16.80
2017-08-31T13:52:06.084Z,16.60
2017-08-31T13:54:33.659Z,16.60
2017-08-31T13:57:01.207Z,16.50
2017-08-31T13:59:28.821Z,16.50
2017-08-31T14:01:56.451Z,16.60
2017-08-31T14:04:23.984Z,16.60
2017-08-31T14:06:51.562Z,16.70
2017-08-31T14:09:19.099Z,16.70
2017-08-31T14:11:46.651Z,16.80
2017-08-31T14:14:14.213Z,16.90
2017-08-31T14:16:44.070Z,16.90
2017-08-31T14:19:13.418Z,17.00
2017-08-31T14:21:40.965Z,17.00
2017-08-31T14:24:08.757Z,17.00
2017-08-31T14:26:36.390Z,17.00
2017-08-31T14:29:04.007Z,17.00
2017-08-31T14:31:31.563Z,17.10
2017-08-31T14:33:59.163Z,17.10
2017-08-31T14:36:26.769Z,17.20
2017-08-31T14:38:54.352Z,17.20
2017-08-31T14:41:22.046Z,17.20
2017-08-31T14:43:49.675Z,17.30
2017-08-31T14:46:17.415Z,17.20
2017-08-31T14:48:45.087Z,17.20
2017-08-31T14:51:12.836Z,17.10
2017-08-31T14:53:40.763Z,17.20
2017-08-31T14:56:08.438Z,17.10
2017-08-31T14:58:36.162Z,17.10
2017-08-31T15:01:03.706Z,17.10
2017-08-31T15:03:31.682Z,16.90
2017-08-31T15:08:51.943Z,16.60
2017-08-31T15:11:19.522Z,16.50
2017-08-31T15:13:47.094Z,16.30
2017-08-31T15:16:14.630Z,16.30
2017-08-31T15:18:42.199Z,16.10
2017-08-31T15:21:09.746Z,16.20
2017-08-31T15:23:37.352Z,16.20
2017-08-31T15:26:04.976Z,16.20
2017-08-31T15:28:32.604Z,16.10
2017-08-31T15:31:00.363Z,16.10
2017-08-31T15:33:34.553Z,15.90
2017-08-31T15:36:02.328Z,15.90
2017-08-31T15:38:42.430Z,16.00
2017-08-31T15:41:10.113Z,16.00
2017-08-31T15:43:38.572Z,16.00
2017-08-31T15:46:08.165Z,15.90
2017-08-31T15:48:35.809Z,15.70
2017-08-31T15:51:03.409Z,15.70
2017-08-31T15:53:30.946Z,15.80
2017-08-31T15:55:58.506Z,15.90
2017-08-31T15:58:26.093Z,15.90
2017-08-31T16:00:53.754Z,15.70
2017-08-31T16:03:24.065Z,15.70
2017-08-31T16:05:51.649Z,15.80
2017-08-31T16:08:19.559Z,15.80
2017-08-31T16:13:50.557Z,15.80
2017-08-31T16:16:24.830Z,15.80
2017-08-31T16:18:57.170Z,15.80
2017-08-31T16:21:25.163Z,15.80
2017-08-31T16:23:56.609Z,15.80
2017-08-31T16:26:24.904Z,15.80
2017-08-31T16:28:59.232Z,15.80
2017-08-31T16:31:59.582Z,15.90
2017-08-31T16:43:23.681Z,16.00
2017-08-31T16:45:51.299Z,15.90
2017-08-31T16:48:20.689Z,15.90
2017-08-31T16:50:55.888Z,15.90
2017-08-31T16:53:30.958Z,15.90
2017-08-31T16:55:58.557Z,15.80
2017-08-31T16:58:26.210Z,15.80
2017-08-31T17:01:18.997Z,15.80
2017-08-31T17:03:50.249Z,15.80
2017-08-31T17:06:18.733Z,15.80
2017-08-31T17:08:46.302Z,15.80
2017-08-31T17:11:15.022Z,15.80
2017-08-31T17:13:42.567Z,15.70
2017-08-31T17:24:59.153Z,15.60
2017-08-31T17:27:41.316Z,15.60
2017-08-31T17:33:03.667Z,15.60
2017-08-31T17:35:34.049Z,15.70
2017-08-31T17:38:01.805Z,15.70
2017-08-31T17:40:29.467Z,15.70
2017-08-31T17:43:01.905Z,15.60
2017-08-31T17:45:33.184Z,15.60
2017-08-31T17:48:04.395Z,15.70
2017-08-31T17:50:33.200Z,15.60
2017-08-31T17:53:01.281Z,15.60
2017-08-31T17:55:29.850Z,15.70
2017-08-31T17:58:06.648Z,15.60
2017-08-31T18:00:35.449Z,15.70
2017-08-31T18:03:04.409Z,15.70
2017-08-31T18:05:32.145Z,15.70
2017-08-31T18:08:12.812Z,15.70
2017-08-31T18:10:40.484Z,15.60
2017-08-31T18:13:09.580Z,15.50
2017-08-31T18:15:37.271Z,15.50
2017-08-31T18:18:13.623Z,15.50
2017-08-31T18:20:41.178Z,15.60
2017-08-31T18:23:08.814Z,15.60
2017-08-31T18:25:36.445Z,15.60
2017-08-31T18:28:04.188Z,15.60
2017-08-31T18:30:32.003Z,15.60
2017-08-31T18:33:06.929Z,15.60
2017-08-31T18:35:36.749Z,15.50
2017-08-31T18:38:08.221Z,15.50
2017-08-31T18:40:36.392Z,15.50
2017-08-31T18:43:03.945Z,15.60
2017-08-31T18:45:31.530Z,15.50
2017-08-31T18:47:59.084Z,15.50
2017-08-31T18:50:26.650Z,15.50
2017-08-31T18:52:54.268Z,15.60
2017-08-31T18:55:21.822Z,15.80
2017-08-31T18:57:49.515Z,16.00
2017-08-31T19:00:17.114Z,16.20
2017-08-31T19:02:44.715Z,16.00
2017-08-31T19:05:12.273Z,15.80
2017-08-31T19:07:39.868Z,15.60
2017-08-31T19:10:08.619Z,15.50
2017-08-31T19:12:37.646Z,15.50
2017-08-31T19:15:05.288Z,15.50
2017-08-31T19:17:32.844Z,15.50
2017-08-31T19:20:00.476Z,15.40
2017-08-31T19:22:29.464Z,15.50
2017-08-31T19:24:57.151Z,15.40
2017-08-31T19:27:24.852Z,15.30
2017-08-31T19:29:52.750Z,15.30
2017-08-31T19:32:21.401Z,15.30
2017-08-31T19:34:52.028Z,15.20
2017-08-31T19:37:19.767Z,15.20
2017-08-31T19:39:53.444Z,15.10
2017-08-31T19:42:21.014Z,15.10
2017-08-31T19:44:48.606Z,15.00
2017-08-31T19:47:20.614Z,15.00
2017-08-31T19:49:48.202Z,15.00
2017-08-31T19:52:15.764Z,15.00
2017-08-31T19:54:43.375Z,15.00
2017-08-31T19:57:11.135Z,15.00
2017-08-31T19:59:38.675Z,15.00
2017-08-31T20:02:06.306Z,14.90
2017-08-31T20:04:43.740Z,14.90
2017-08-31T20:07:11.320Z,14.90
2017-08-31T20:09:39.081Z,15.00
2017-08-31T20:12:10.596Z,15.00
2017-08-31T20:14:38.165Z,15.00
2017-08-31T20:17:05.821Z,15.00
2017-08-31T20:19:36.875Z,15.00
2017-08-31T20:22:04.511Z,15.00
2017-08-31T20:24:32.085Z,15.00
2017-08-31T20:27:04.090Z,15.10
2017-08-31T20:29:31.644Z,15.10
2017-08-31T20:31:59.243Z,15.20
2017-08-31T20:34:33.827Z,15.10
2017-08-31T20:37:01.422Z,15.10
2017-08-31T20:39:28.956Z,15.10
2017-08-31T20:42:03.364Z,15.00
2017-08-31T20:44:31.084Z,15.00
2017-08-31T20:47:04.535Z,15.00
2017-08-31T20:49:32.167Z,15.00
2017-08-31T20:51:59.741Z,15.00
2017-08-31T20:54:34.050Z,15.00
2017-08-31T20:57:01.633Z,15.00
2017-08-31T20:59:29.270Z,15.00
2017-08-31T21:01:59.454Z,15.00
2017-08-31T21:04:27.046Z,15.00
2017-08-31T21:11:39.826Z,15.00
2017-08-31T21:14:07.446Z,15.00
2017-08-31T21:16:40.924Z,15.10
2017-08-31T21:19:08.561Z,15.00
2017-08-31T21:21:36.231Z,14.90
2017-08-31T21:24:10.631Z,15.00
2017-08-31T21:26:38.348Z,14.90
2017-08-31T21:29:09.914Z,14.90
2017-08-31T21:31:37.544Z,14.90
2017-08-31T21:34:05.105Z,14.90
2017-08-31T21:36:32.658Z,14.90
2017-08-31T21:39:03.914Z,14.90
2017-08-31T21:41:31.500Z,14.90
2017-08-31T21:43:59.038Z,14.90
2017-08-31T21:46:28.465Z,14.90
2017-08-31T21:48:56.027Z,14.90
2017-08-31T21:51:23.592Z,14.90
2017-08-31T21:53:51.153Z,14.90
2017-08-31T21:56:19.426Z,14.80
2017-08-31T21:58:47.978Z,14.70
2017-08-31T22:01:15.566Z,14.80
2017-08-31T22:03:43.110Z,14.80
2017-08-31T22:06:17.798Z,14.90
2017-08-31T22:08:45.351Z,14.80
2017-08-31T22:11:12.979Z,14.70
2017-08-31T22:13:44.585Z,14.80
2017-08-31T22:16:12.151Z,14.70
2017-08-31T22:18:39.869Z,14.80
2017-08-31T22:21:45.276Z,14.80
2017-08-31T22:27:07.974Z,14.60
2017-08-31T22:29:35.562Z,14.50
2017-08-31T22:32:03.182Z,14.50
2017-08-31T22:34:34.455Z,14.50
2017-08-31T22:37:02.016Z,14.50
2017-08-31T22:39:29.572Z,14.50
2017-08-31T22:42:01.754Z,14.50
2017-08-31T22:44:29.299Z,14.50
2017-08-31T22:46:56.913Z,14.50
2017-08-31T22:49:24.764Z,14.50
2017-08-31T22:51:57.400Z,14.50
2017-08-31T22:54:25.078Z,14.50
2017-08-31T22:56:56.176Z,14.50
2017-08-31T22:59:23.783Z,14.60
2017-08-31T23:01:51.307Z,14.60
2017-08-31T23:04:18.847Z,14.60
2017-08-31T23:06:46.435Z,14.60
2017-08-31T23:09:13.961Z,14.50
2017-08-31T23:11:41.484Z,14.50
2017-08-31T23:14:08.997Z,14.40
2017-08-31T23:16:36.547Z,14.30
2017-08-31T23:19:04.058Z,14.30
2017-08-31T23:21:31.569Z,14.30
2017-08-31T23:23:59.095Z,14.30
2017-08-31T23:26:26.601Z,14.30
2017-08-31T23:28:54.163Z,14.30
2017-08-31T23:31:21.693Z,14.30
2017-08-31T23:33:49.223Z,14.30
2017-08-31T23:36:16.744Z,14.20
2017-08-31T23:38:44.302Z,14.20
2017-08-31T23:41:11.822Z,14.10
2017-08-31T23:43:39.312Z,14.20
2017-08-31T23:46:06.849Z,14.10
2017-08-31T23:48:34.367Z,14.10
2017-08-31T23:51:01.910Z,14.10
2017-08-31T23:53:29.408Z,14.00
2017-08-31T23:55:56.938Z,14.10
2017-08-31T23:58:24.437Z,14.10
